createdAt,value
2022-09-28T00:03:03.672Z,85.31
2022-09-28T00:08:03.553Z,84.70
2022-09-28T00:13:03.647Z,84.91
2022-09-28T00:18:03.428Z,85.31
2022-09-28T00:23:03.346Z,84.70
2022-09-28T00:28:03.267Z,84.80
2022-09-28T00:33:03.214Z,84.60
2022-09-28T00:38:03.162Z,84.44
2022-09-28T00:43:03.082Z,85.15
2022-09-28T00:48:03.006Z,85.56
2022-09-28T00:53:02.937Z,84.84
2022-09-28T00:58:02.878Z,82.35
2022-09-28T01:03:02.808Z,83.06
2022-09-28T01:08:02.732Z,84.03
2022-09-28T01:13:06.689Z,84.74
2022-09-28T01:18:02.659Z,84.23
2022-09-28T01:23:02.545Z,83.61
2022-09-28T01:28:02.482Z,83.65
2022-09-28T01:33:02.417Z,84.68
2022-09-28T01:38:02.350Z,85.30
2022-09-28T01:43:02.296Z,84.88
2022-09-28T01:48:02.218Z,85.33
2022-09-28T01:53:02.158Z,85.33
2022-09-28T01:58:02.144Z,86.57
2022-09-28T02:03:02.026Z,87.38
2022-09-28T02:08:01.955Z,87.38
2022-09-28T02:13:01.913Z,86.77
2022-09-28T02:18:01.820Z,87.04
2022-09-28T02:23:01.936Z,87.04
2022-09-28T02:28:01.692Z,86.83
2022-09-28T02:33:01.625Z,87.82
2022-09-28T02:38:01.555Z,85.66
2022-09-28T02:43:01.482Z,85.77
2022-09-28T02:48:01.430Z,86.18
2022-09-28T02:53:01.381Z,87.20
2022-09-28T02:58:01.322Z,86.48
2022-09-28T03:03:01.226Z,86.69
2022-09-28T03:08:01.166Z,86.32
2022-09-28T03:13:01.124Z,86.32
2022-09-28T03:18:01.066Z,86.87
2022-09-28T03:23:23.353Z,88.00
2022-09-28T03:28:01.930Z,88.35
2022-09-28T03:33:00.840Z,88.80
2022-09-28T03:38:00.754Z,90.55
2022-09-28T03:43:00.710Z,91.27
2022-09-28T03:48:00.639Z,91.47
2022-09-28T03:53:00.559Z,91.12
2022-09-28T03:58:00.513Z,91.22
2022-09-28T04:03:00.423Z,91.08
2022-09-28T04:08:00.383Z,90.87
2022-09-28T04:13:00.309Z,90.83
2022-09-28T04:18:00.223Z,89.39
2022-09-28T04:23:00.206Z,88.98
2022-09-28T04:28:00.142Z,90.22
2022-09-28T04:33:00.228Z,90.67
2022-09-28T04:37:59.996Z,90.77
2022-09-28T04:42:59.896Z,91.59
2022-09-28T04:47:59.819Z,92.80
2022-09-28T04:53:00.094Z,93.21
2022-09-28T04:57:59.705Z,93.21
2022-09-28T05:02:59.647Z,92.97
2022-09-28T05:07:59.548Z,91.08
2022-09-28T05:12:59.492Z,91.08
2022-09-28T05:17:59.404Z,89.84
2022-09-28T05:22:59.342Z,89.84
2022-09-28T05:27:59.327Z,90.05
2022-09-28T05:32:59.234Z,90.16
2022-09-28T05:37:59.299Z,88.98
2022-09-28T05:42:59.104Z,87.24
2022-09-28T05:47:59.039Z,87.30
2022-09-28T05:52:58.960Z,86.48
2022-09-28T05:57:58.891Z,86.48
2022-09-28T06:02:58.829Z,86.48
2022-09-28T06:07:58.805Z,86.24
2022-09-28T06:12:58.796Z,85.77
2022-09-28T06:17:58.661Z,85.52
2022-09-28T06:22:58.571Z,84.46
2022-09-28T06:27:58.510Z,83.81
2022-09-28T06:32:58.435Z,83.50
2022-09-28T06:37:58.367Z,83.87
2022-09-28T06:42:58.339Z,83.66
2022-09-28T06:47:58.262Z,83.52
2022-09-28T06:52:58.280Z,82.91
2022-09-28T06:57:58.214Z,82.15
2022-09-28T07:02:58.237Z,82.09
2022-09-28T07:07:57.974Z,82.87
2022-09-28T07:12:57.959Z,82.26
2022-09-28T07:18:02.649Z,81.51
2022-09-28T07:23:09.199Z,81.60
2022-09-28T07:27:58.704Z,87.61
2022-09-28T07:32:57.762Z,77.98
2022-09-28T07:37:57.648Z,78.88
2022-09-28T07:42:57.522Z,79.63
2022-09-28T07:47:57.472Z,80.07
2022-09-28T07:52:57.363Z,81.40
2022-09-28T07:57:57.407Z,80.69
2022-09-28T08:02:57.245Z,82.63
2022-09-28T08:07:57.226Z,83.54
2022-09-28T08:12:59.305Z,81.67
2022-09-28T08:18:00.525Z,83.87
2022-09-28T08:22:57.095Z,82.35
2022-09-28T08:27:56.947Z,83.67
2022-09-28T08:32:56.838Z,85.04
2022-09-28T08:37:56.791Z,84.53
2022-09-28T08:42:56.767Z,84.16
2022-09-28T08:47:57.041Z,83.81
2022-09-28T08:52:57.026Z,82.18
2022-09-28T08:57:56.796Z,84.12
2022-09-28T09:02:56.749Z,82.39
2022-09-28T09:07:56.446Z,83.00
2022-09-28T09:12:56.609Z,83.51
2022-09-28T09:17:56.401Z,84.83
2022-09-28T09:22:56.542Z,83.30
2022-09-28T09:27:56.289Z,83.23
2022-09-28T09:32:56.513Z,83.70
2022-09-28T09:37:58.475Z,82.71
2022-09-28T09:42:56.634Z,84.08
2022-09-28T09:47:55.941Z,83.87
2022-09-28T09:52:55.992Z,83.78
2022-09-28T09:57:55.810Z,85.24
2022-09-28T10:02:55.763Z,84.09
2022-09-28T10:07:55.610Z,84.69
2022-09-28T10:12:55.608Z,89.12
2022-09-28T10:17:55.586Z,90.30
2022-09-28T10:22:55.399Z,89.47
2022-09-28T10:27:55.338Z,90.19
2022-09-28T10:32:55.268Z,88.71
2022-09-28T10:37:55.232Z,88.12
2022-09-28T10:42:55.652Z,85.12
2022-09-28T10:47:55.068Z,86.83
2022-09-28T10:52:55.137Z,87.70
2022-09-28T10:57:55.135Z,89.39
2022-09-28T11:02:55.013Z,84.50
2022-09-28T11:07:55.014Z,88.33
2022-09-28T11:12:54.744Z,85.65
2022-09-28T11:17:54.745Z,87.84
2022-09-28T11:22:54.668Z,88.65
2022-09-28T11:27:54.705Z,87.63
2022-09-28T11:32:54.526Z,88.37
2022-09-28T11:37:54.481Z,85.84
2022-09-28T11:42:54.450Z,85.17
2022-09-28T11:47:54.419Z,82.61
2022-09-28T11:52:54.249Z,78.78
2022-09-28T11:57:54.130Z,81.43
2022-09-28T12:02:54.267Z,81.15
2022-09-28T12:07:54.269Z,78.98
2022-09-28T12:12:54.094Z,76.61
2022-09-28T12:17:54.035Z,76.24
2022-09-28T12:22:53.829Z,78.91
2022-09-28T12:27:54.230Z,77.02
2022-09-28T12:32:53.708Z,78.01
2022-09-28T12:37:56.292Z,78.15
2022-09-28T12:42:53.704Z,80.29
2022-09-28T12:47:53.476Z,77.40
2022-09-28T12:52:53.415Z,79.37
2022-09-28T12:57:53.344Z,80.24
2022-09-28T13:02:53.391Z,75.98
2022-09-28T13:07:53.280Z,80.22
2022-09-28T13:12:53.372Z,81.01
2022-09-28T13:17:53.106Z,82.23
2022-09-28T13:22:53.033Z,82.80
2022-09-28T13:27:52.941Z,81.88
2022-09-28T13:32:52.874Z,80.73
2022-09-28T13:37:52.805Z,79.75
2022-09-28T13:42:52.763Z,77.75
2022-09-28T13:47:52.670Z,78.97
2022-09-28T13:52:52.624Z,79.93
2022-09-28T13:57:52.553Z,82.10
2022-09-28T14:02:52.621Z,81.86
2022-09-28T14:07:55.271Z,80.57
2022-09-28T14:12:52.360Z,80.78
2022-09-28T14:17:52.306Z,80.61
2022-09-28T14:22:52.224Z,81.12
2022-09-28T14:27:52.156Z,82.96
2022-09-28T14:32:52.098Z,82.79
2022-09-28T14:37:52.084Z,86.12
2022-09-28T14:47:51.907Z,85.51
2022-09-28T14:52:51.831Z,82.78
2022-09-28T14:57:51.767Z,81.72
2022-09-28T15:02:51.702Z,82.24
2022-09-28T15:07:51.645Z,83.51
2022-09-28T15:12:51.582Z,82.59
2022-09-28T15:17:51.551Z,83.14
2022-09-28T15:22:51.614Z,83.38
2022-09-28T15:27:51.371Z,83.48
2022-09-28T15:32:51.317Z,82.69
2022-09-28T15:37:51.265Z,81.53
2022-09-28T15:42:51.175Z,79.32
2022-09-28T15:47:51.153Z,79.57
2022-09-28T15:52:51.154Z,80.48
2022-09-28T15:57:51.000Z,80.99
2022-09-28T16:02:53.402Z,81.30
2022-09-28T16:07:58.045Z,81.60
2022-09-28T16:12:50.802Z,80.18
2022-09-28T16:17:50.753Z,82.12
2022-09-28T16:22:50.660Z,81.91
2022-09-28T16:27:50.772Z,81.71
2022-09-28T16:32:50.536Z,82.22
2022-09-28T16:37:50.505Z,81.24
2022-09-28T16:42:50.379Z,81.54
2022-09-28T16:47:50.380Z,83.01
2022-09-28T16:52:50.269Z,83.83
2022-09-28T16:57:50.207Z,85.10
2022-09-28T17:02:50.190Z,84.69
2022-09-28T17:07:50.694Z,84.69
2022-09-28T17:12:50.013Z,86.63
2022-09-28T17:17:49.984Z,87.24
2022-09-28T17:22:49.876Z,87.49
2022-09-28T17:27:49.897Z,87.70
2022-09-28T17:32:49.739Z,88.31
2022-09-28T17:37:49.665Z,89.70
2022-09-28T17:42:49.677Z,90.11
2022-09-28T17:47:49.549Z,88.00
2022-09-28T17:52:49.526Z,89.74
2022-09-28T17:57:49.523Z,89.53
2022-09-28T18:02:49.361Z,89.89
2022-09-28T18:07:49.264Z,90.54
2022-09-28T18:12:50.254Z,91.09
2022-09-28T18:17:49.206Z,91.75
2022-09-28T18:22:49.190Z,92.93
2022-09-28T18:27:49.026Z,93.23
2022-09-28T18:32:49.141Z,94.61
2022-09-28T18:37:48.923Z,94.96
2022-09-28T18:42:48.827Z,95.98
2022-09-28T18:47:48.779Z,96.50
2022-09-28T18:52:48.693Z,96.81
2022-09-28T18:57:48.627Z,97.17
2022-09-28T19:02:48.646Z,97.13
2022-09-28T19:07:48.472Z,96.62
2022-09-28T19:12:48.412Z,95.94
2022-09-28T19:17:48.457Z,96.70
2022-09-28T19:22:48.286Z,97.73
2022-09-28T19:27:48.211Z,97.78
2022-09-28T19:32:48.179Z,99.00
2022-09-28T19:37:48.105Z,99.41
2022-09-28T19:42:48.021Z,99.87
2022-09-28T19:47:47.996Z,99.99
2022-09-28T19:52:47.896Z,99.99
2022-09-28T19:57:47.815Z,99.99
2022-09-28T20:02:47.837Z,99.99
2022-09-28T20:07:47.699Z,99.99
2022-09-28T20:12:47.637Z,99.99
2022-09-28T20:17:47.561Z,99.99
2022-09-28T20:22:47.505Z,99.99
2022-09-28T20:27:47.449Z,99.99
2022-09-28T20:32:49.523Z,99.99
2022-09-28T20:37:47.358Z,99.99
2022-09-28T20:42:47.241Z,99.99
2022-09-28T20:47:47.200Z,99.99
2022-09-28T20:52:47.105Z,99.99
2022-09-28T20:57:47.034Z,99.99
2022-09-28T21:02:46.997Z,99.99
2022-09-28T21:07:46.904Z,99.99
2022-09-28T21:12:46.835Z,99.99
2022-09-28T21:17:46.777Z,99.99
2022-09-28T21:22:46.735Z,99.99
2022-09-28T21:27:46.672Z,99.99
2022-09-28T21:32:46.578Z,99.99
2022-09-28T21:37:46.498Z,99.99
2022-09-28T21:42:46.480Z,99.99
2022-09-28T21:47:46.587Z,99.99
2022-09-28T21:52:46.303Z,99.99
2022-09-28T21:57:46.252Z,99.99
2022-09-28T22:02:46.257Z,99.99
2022-09-28T22:07:46.120Z,99.99
2022-09-28T22:12:46.079Z,99.99
2022-09-28T22:17:45.985Z,99.99
2022-09-28T22:22:45.909Z,99.99
2022-09-28T22:27:45.890Z,99.99
2022-09-28T22:32:45.806Z,99.99
2022-09-28T22:37:45.742Z,99.99
2022-09-28T22:42:45.681Z,99.99
2022-09-28T22:47:45.592Z,99.99
2022-09-28T22:52:45.688Z,99.99
2022-09-28T22:57:45.473Z,99.99
2022-09-28T23:02:45.433Z,99.99
2022-09-28T23:07:45.357Z,99.99
2022-09-28T23:12:45.263Z,99.99
2022-09-28T23:17:45.225Z,99.99
2022-09-28T23:22:45.162Z,99.99
2022-09-28T23:27:45.079Z,99.99
2022-09-28T23:32:45.022Z,99.99
2022-09-28T23:37:44.947Z,99.99
2022-09-28T23:42:44.920Z,99.99
2022-09-28T23:47:44.809Z,99.99
2022-09-28T23:52:44.753Z,99.99
2022-09-28T23:57:44.690Z,99.99
